sensor_id;sensor_type;location;lat;lon;timestamp;temperature;humidity
9271;DHT22;4673;53.458;9.940;2024-02-14T00:00:03;4.80;53.20
9271;DHT22;4673;53.458;9.940;2024-02-14T00:02:29;4.80;53.40
9271;DHT22;4673;53.458;9.940;2024-02-14T00:04:54;4.70;53.50
9271;DHT22;4673;53.458;9.940;2024-02-14T00:07:20;4.70;53.40
9271;DHT22;4673;53.458;9.940;2024-02-14T00:09:47;4.70;53.60
9271;DHT22;4673;53.458;9.940;2024-02-14T00:12:13;4.60;53.70
9271;DHT22;4673;53.458;9.940;2024-02-14T00:14:38;4.60;53.70
9271;DHT22;4673;53.458;9.940;2024-02-14T00:17:04;4.60;53.70
9271;DHT22;4673;53.458;9.940;2024-02-14T00:19:31;4.60;53.50
9271;DHT22;4673;53.458;9.940;2024-02-14T00:21:57;4.70;53.10
9271;DHT22;4673;53.458;9.940;2024-02-14T00:24:22;4.60;53.30
9271;DHT22;4673;53.458;9.940;2024-02-14T00:26:52;4.70;53.20
9271;DHT22;4673;53.458;9.940;2024-02-14T00:29:17;4.70;53.10
9271;DHT22;4673;53.458;9.940;2024-02-14T00:31:43;4.80;53.20
9271;DHT22;4673;53.458;9.940;2024-02-14T00:34:10;4.80;53.20
9271;DHT22;4673;53.458;9.940;2024-02-14T00:36:36;4.80;53.40
9271;DHT22;4673;53.458;9.940;2024-02-14T00:39:01;4.80;53.20
9271;DHT22;4673;53.458;9.940;2024-02-14T00:41:27;4.80;53.10
9271;DHT22;4673;53.458;9.940;2024-02-14T00:43:55;4.80;53.50
9271;DHT22;4673;53.458;9.940;2024-02-14T00:46:21;4.70;53.10
9271;DHT22;4673;53.458;9.940;2024-02-14T00:48:47;4.80;53.00
9271;DHT22;4673;53.458;9.940;2024-02-14T00:51:13;4.80;52.80
9271;DHT22;4673;53.458;9.940;2024-02-14T00:53:39;4.80;53.20
9271;DHT22;4673;53.458;9.940;2024-02-14T00:56:04;4.90;53.10
9271;DHT22;4673;53.458;9.940;2024-02-14T00:58:31;4.90;53.20
9271;DHT22;4673;53.458;9.940;2024-02-14T01:00:57;5.00;52.60
9271;DHT22;4673;53.458;9.940;2024-02-14T01:03:23;5.00;52.60
9271;DHT22;4673;53.458;9.940;2024-02-14T01:05:48;5.00;52.70
9271;DHT22;4673;53.458;9.940;2024-02-14T01:08:14;5.10;52.50
9271;DHT22;4673;53.458;9.940;2024-02-14T01:10:40;5.00;52.60
9271;DHT22;4673;53.458;9.940;2024-02-14T01:13:06;5.10;53.20
9271;DHT22;4673;53.458;9.940;2024-02-14T01:15:32;5.10;53.70
9271;DHT22;4673;53.458;9.940;2024-02-14T01:17:59;5.10;54.00
9271;DHT22;4673;53.458;9.940;2024-02-14T01:20:24;5.10;54.90
9271;DHT22;4673;53.458;9.940;2024-02-14T01:22:50;5.10;55.10
9271;DHT22;4673;53.458;9.940;2024-02-14T01:25:15;5.00;55.10
9271;DHT22;4673;53.458;9.940;2024-02-14T01:27:41;5.10;56.90
9271;DHT22;4673;53.458;9.940;2024-02-14T01:30:08;5.10;57.50
9271;DHT22;4673;53.458;9.940;2024-02-14T01:32:34;5.10;57.60
9271;DHT22;4673;53.458;9.940;2024-02-14T01:35:00;5.10;58.20
9271;DHT22;4673;53.458;9.940;2024-02-14T01:37:26;5.10;58.80
9271;DHT22;4673;53.458;9.940;2024-02-14T01:39:52;5.20;58.90
9271;DHT22;4673;53.458;9.940;2024-02-14T01:42:18;5.20;59.40
9271;DHT22;4673;53.458;9.940;2024-02-14T01:44:44;5.10;59.60
9271;DHT22;4673;53.458;9.940;2024-02-14T01:47:10;5.10;59.70
9271;DHT22;4673;53.458;9.940;2024-02-14T01:49:36;5.10;59.90
9271;DHT22;4673;53.458;9.940;2024-02-14T01:52:03;5.10;60.40
9271;DHT22;4673;53.458;9.940;2024-02-14T01:54:33;5.10;61.00
9271;DHT22;4673;53.458;9.940;2024-02-14T01:57:00;5.00;60.90
9271;DHT22;4673;53.458;9.940;2024-02-14T01:59:26;5.00;61.40
9271;DHT22;4673;53.458;9.940;2024-02-14T02:01:52;5.00;62.10
9271;DHT22;4673;53.458;9.940;2024-02-14T02:04:18;5.00;62.40
9271;DHT22;4673;53.458;9.940;2024-02-14T02:06:44;5.00;62.20
9271;DHT22;4673;53.458;9.940;2024-02-14T02:09:10;4.90;62.60
9271;DHT22;4673;53.458;9.940;2024-02-14T02:11:52;5.00;63.10
9271;DHT22;4673;53.458;9.940;2024-02-14T02:14:19;5.00;63.40
9271;DHT22;4673;53.458;9.940;2024-02-14T02:16:46;5.00;64.10
9271;DHT22;4673;53.458;9.940;2024-02-14T02:19:12;5.00;64.40
9271;DHT22;4673;53.458;9.940;2024-02-14T02:21:39;5.00;64.90
9271;DHT22;4673;53.458;9.940;2024-02-14T02:24:05;5.10;65.50
9271;DHT22;4673;53.458;9.940;2024-02-14T02:26:30;5.10;65.80
9271;DHT22;4673;53.458;9.940;2024-02-14T02:28:56;5.10;65.80
9271;DHT22;4673;53.458;9.940;2024-02-14T02:31:22;5.10;65.90
9271;DHT22;4673;53.458;9.940;2024-02-14T02:33:47;5.00;66.00
9271;DHT22;4673;53.458;9.940;2024-02-14T02:36:13;5.00;66.20
9271;DHT22;4673;53.458;9.940;2024-02-14T02:38:41;5.10;66.90
9271;DHT22;4673;53.458;9.940;2024-02-14T02:41:07;5.10;67.20
9271;DHT22;4673;53.458;9.940;2024-02-14T02:43:33;5.00;67.00
9271;DHT22;4673;53.458;9.940;2024-02-14T02:45:59;5.00;66.90
9271;DHT22;4673;53.458;9.940;2024-02-14T02:48:25;5.00;67.10
9271;DHT22;4673;53.458;9.940;2024-02-14T02:50:51;5.00;67.20
9271;DHT22;4673;53.458;9.940;2024-02-14T02:53:17;5.00;67.30
9271;DHT22;4673;53.458;9.940;2024-02-14T02:55:43;5.00;67.70
9271;DHT22;4673;53.458;9.940;2024-02-14T02:58:10;5.00;67.80
9271;DHT22;4673;53.458;9.940;2024-02-14T03:00:35;5.10;68.30
9271;DHT22;4673;53.458;9.940;2024-02-14T03:03:01;5.10;68.70
9271;DHT22;4673;53.458;9.940;2024-02-14T03:05:33;5.10;68.60
9271;DHT22;4673;53.458;9.940;2024-02-14T03:07:59;5.00;68.20
9271;DHT22;4673;53.458;9.940;2024-02-14T03:10:26;4.90;68.10
9271;DHT22;4673;53.458;9.940;2024-02-14T03:12:51;5.00;68.50
9271;DHT22;4673;53.458;9.940;2024-02-14T03:15:18;5.00;68.80
9271;DHT22;4673;53.458;9.940;2024-02-14T03:17:45;5.00;68.70
9271;DHT22;4673;53.458;9.940;2024-02-14T03:20:11;5.20;69.00
9271;DHT22;4673;53.458;9.940;2024-02-14T03:22:40;5.10;69.10
9271;DHT22;4673;53.458;9.940;2024-02-14T03:25:20;5.10;69.10
9271;DHT22;4673;53.458;9.940;2024-02-14T03:27:46;5.00;68.90
9271;DHT22;4673;53.458;9.940;2024-02-14T03:30:18;4.90;69.00
9271;DHT22;4673;53.458;9.940;2024-02-14T03:32:44;4.90;69.00
9271;DHT22;4673;53.458;9.940;2024-02-14T03:35:10;4.90;69.00
9271;DHT22;4673;53.458;9.940;2024-02-14T03:37:38;4.80;68.90
9271;DHT22;4673;53.458;9.940;2024-02-14T03:40:05;4.70;68.90
9271;DHT22;4673;53.458;9.940;2024-02-14T03:42:33;4.70;68.90
9271;DHT22;4673;53.458;9.940;2024-02-14T03:44:59;4.70;69.00
9271;DHT22;4673;53.458;9.940;2024-02-14T03:47:33;4.70;69.20
9271;DHT22;4673;53.458;9.940;2024-02-14T03:49:59;4.80;69.60
9271;DHT22;4673;53.458;9.940;2024-02-14T03:52:25;4.70;69.60
9271;DHT22;4673;53.458;9.940;2024-02-14T03:54:52;4.70;69.70
9271;DHT22;4673;53.458;9.940;2024-02-14T03:57:17;4.80;69.90
9271;DHT22;4673;53.458;9.940;2024-02-14T03:59:44;4.80;69.90
9271;DHT22;4673;53.458;9.940;2024-02-14T04:02:09;4.80;70.10
9271;DHT22;4673;53.458;9.940;2024-02-14T04:04:38;4.80;70.10
9271;DHT22;4673;53.458;9.940;2024-02-14T04:07:06;4.80;70.10
9271;DHT22;4673;53.458;9.940;2024-02-14T04:09:34;4.80;70.10
9271;DHT22;4673;53.458;9.940;2024-02-14T04:11:59;4.80;70.20
9271;DHT22;4673;53.458;9.940;2024-02-14T04:14:25;4.90;70.40
9271;DHT22;4673;53.458;9.940;2024-02-14T04:16:51;5.20;70.70
9271;DHT22;4673;53.458;9.940;2024-02-14T04:19:16;4.90;70.60
9271;DHT22;4673;53.458;9.940;2024-02-14T04:21:43;4.90;70.50
9271;DHT22;4673;53.458;9.940;2024-02-14T04:24:09;4.90;70.70
9271;DHT22;4673;53.458;9.940;2024-02-14T04:26:34;4.90;70.90
9271;DHT22;4673;53.458;9.940;2024-02-14T04:29:00;5.10;71.20
9271;DHT22;4673;53.458;9.940;2024-02-14T04:31:26;5.00;71.20
9271;DHT22;4673;53.458;9.940;2024-02-14T04:33:52;5.00;71.20
9271;DHT22;4673;53.458;9.940;2024-02-14T04:36:20;4.90;71.40
9271;DHT22;4673;53.458;9.940;2024-02-14T04:38:46;5.00;71.40
9271;DHT22;4673;53.458;9.940;2024-02-14T04:41:13;5.10;71.60
9271;DHT22;4673;53.458;9.940;2024-02-14T04:43:40;5.00;71.60
9271;DHT22;4673;53.458;9.940;2024-02-14T04:46:05;4.90;71.70
9271;DHT22;4673;53.458;9.940;2024-02-14T04:48:33;4.90;71.80
9271;DHT22;4673;53.458;9.940;2024-02-14T04:50:58;5.00;72.00
9271;DHT22;4673;53.458;9.940;2024-02-14T04:53:24;4.90;72.00
9271;DHT22;4673;53.458;9.940;2024-02-14T04:55:50;4.90;72.30
9271;DHT22;4673;53.458;9.940;2024-02-14T04:58:16;4.90;72.50
9271;DHT22;4673;53.458;9.940;2024-02-14T05:00:42;4.90;72.70
9271;DHT22;4673;53.458;9.940;2024-02-14T05:03:07;5.00;73.00
9271;DHT22;4673;53.458;9.940;2024-02-14T05:05:35;5.00;73.00
9271;DHT22;4673;53.458;9.940;2024-02-14T05:08:01;5.00;73.20
9271;DHT22;4673;53.458;9.940;2024-02-14T05:10:30;5.00;73.20
9271;DHT22;4673;53.458;9.940;2024-02-14T05:12:57;5.00;73.40
9271;DHT22;4673;53.458;9.940;2024-02-14T05:15:22;5.00;73.50
9271;DHT22;4673;53.458;9.940;2024-02-14T05:17:49;5.00;73.70
9271;DHT22;4673;53.458;9.940;2024-02-14T05:20:16;5.00;74.00
9271;DHT22;4673;53.458;9.940;2024-02-14T05:22:42;5.10;74.20
9271;DHT22;4673;53.458;9.940;2024-02-14T05:25:08;5.10;74.40
9271;DHT22;4673;53.458;9.940;2024-02-14T05:27:34;5.10;74.50
9271;DHT22;4673;53.458;9.940;2024-02-14T05:30:01;5.10;74.50
9271;DHT22;4673;53.458;9.940;2024-02-14T05:32:26;5.20;74.70
9271;DHT22;4673;53.458;9.940;2024-02-14T05:34:52;5.20;74.70
9271;DHT22;4673;53.458;9.940;2024-02-14T05:37:18;5.20;74.90
9271;DHT22;4673;53.458;9.940;2024-02-14T05:39:43;5.20;74.90
9271;DHT22;4673;53.458;9.940;2024-02-14T05:42:09;5.20;75.00
9271;DHT22;4673;53.458;9.940;2024-02-14T05:44:34;5.20;75.10
9271;DHT22;4673;53.458;9.940;2024-02-14T05:47:00;5.20;75.20
9271;DHT22;4673;53.458;9.940;2024-02-14T05:49:26;5.20;75.50
9271;DHT22;4673;53.458;9.940;2024-02-14T05:51:52;5.30;75.60
9271;DHT22;4673;53.458;9.940;2024-02-14T05:54:19;5.30;75.70
9271;DHT22;4673;53.458;9.940;2024-02-14T05:56:45;5.30;75.90
9271;DHT22;4673;53.458;9.940;2024-02-14T05:59:11;5.30;75.90
9271;DHT22;4673;53.458;9.940;2024-02-14T06:01:37;5.30;76.00
9271;DHT22;4673;53.458;9.940;2024-02-14T06:04:03;5.30;76.10
9271;DHT22;4673;53.458;9.940;2024-02-14T06:06:28;5.30;76.10
9271;DHT22;4673;53.458;9.940;2024-02-14T06:08:54;5.40;76.30
9271;DHT22;4673;53.458;9.940;2024-02-14T06:11:20;5.40;76.40
9271;DHT22;4673;53.458;9.940;2024-02-14T06:13:49;5.50;76.60
9271;DHT22;4673;53.458;9.940;2024-02-14T06:16:14;5.50;76.60
9271;DHT22;4673;53.458;9.940;2024-02-14T06:18:40;5.50;76.60
9271;DHT22;4673;53.458;9.940;2024-02-14T06:21:06;5.50;76.60
9271;DHT22;4673;53.458;9.940;2024-02-14T06:23:32;5.50;76.60
9271;DHT22;4673;53.458;9.940;2024-02-14T06:25:58;5.60;76.70
9271;DHT22;4673;53.458;9.940;2024-02-14T06:28:24;5.50;76.70
9271;DHT22;4673;53.458;9.940;2024-02-14T06:30:50;5.60;76.80
9271;DHT22;4673;53.458;9.940;2024-02-14T06:33:15;5.60;76.80
9271;DHT22;4673;53.458;9.940;2024-02-14T06:35:41;5.60;76.70
9271;DHT22;4673;53.458;9.940;2024-02-14T06:38:07;5.60;76.90
9271;DHT22;4673;53.458;9.940;2024-02-14T06:40:32;5.60;76.90
9271;DHT22;4673;53.458;9.940;2024-02-14T06:42:58;5.70;76.90
9271;DHT22;4673;53.458;9.940;2024-02-14T06:45:25;5.60;76.90
9271;DHT22;4673;53.458;9.940;2024-02-14T06:47:51;5.70;77.10
9271;DHT22;4673;53.458;9.940;2024-02-14T06:50:17;5.70;77.20
9271;DHT22;4673;53.458;9.940;2024-02-14T06:52:43;5.70;77.10
9271;DHT22;4673;53.458;9.940;2024-02-14T06:55:08;5.80;77.20
9271;DHT22;4673;53.458;9.940;2024-02-14T06:57:34;5.80;77.30
9271;DHT22;4673;53.458;9.940;2024-02-14T07:00:00;5.80;77.30
9271;DHT22;4673;53.458;9.940;2024-02-14T07:02:25;5.80;77.40
9271;DHT22;4673;53.458;9.940;2024-02-14T07:04:53;5.90;77.60
9271;DHT22;4673;53.458;9.940;2024-02-14T07:07:19;5.90;77.80
9271;DHT22;4673;53.458;9.940;2024-02-14T07:09:46;5.90;77.80
9271;DHT22;4673;53.458;9.940;2024-02-14T07:12:11;6.00;77.80
9271;DHT22;4673;53.458;9.940;2024-02-14T07:14:37;6.10;77.90
9271;DHT22;4673;53.458;9.940;2024-02-14T07:17:03;6.00;77.80
9271;DHT22;4673;53.458;9.940;2024-02-14T07:19:29;6.10;77.90
9271;DHT22;4673;53.458;9.940;2024-02-14T07:21:55;6.10;77.80
9271;DHT22;4673;53.458;9.940;2024-02-14T07:24:20;6.10;77.90
9271;DHT22;4673;53.458;9.940;2024-02-14T07:26:46;6.20;77.80
9271;DHT22;4673;53.458;9.940;2024-02-14T07:29:11;6.10;77.80
9271;DHT22;4673;53.458;9.940;2024-02-14T07:31:37;6.20;78.00
9271;DHT22;4673;53.458;9.940;2024-02-14T07:34:03;6.20;78.00
9271;DHT22;4673;53.458;9.940;2024-02-14T07:36:32;6.30;78.20
9271;DHT22;4673;53.458;9.940;2024-02-14T07:38:57;6.40;78.10
9271;DHT22;4673;53.458;9.940;2024-02-14T07:41:23;6.40;78.00
9271;DHT22;4673;53.458;9.940;2024-02-14T07:43:49;6.40;78.00
9271;DHT22;4673;53.458;9.940;2024-02-14T07:46:19;6.40;78.00
9271;DHT22;4673;53.458;9.940;2024-02-14T07:48:44;6.50;78.10
9271;DHT22;4673;53.458;9.940;2024-02-14T07:51:11;6.40;78.00
9271;DHT22;4673;53.458;9.940;2024-02-14T07:53:36;6.50;78.10
9271;DHT22;4673;53.458;9.940;2024-02-14T07:56:02;6.50;78.20
9271;DHT22;4673;53.458;9.940;2024-02-14T07:58:28;6.50;78.30
9271;DHT22;4673;53.458;9.940;2024-02-14T08:00:53;6.60;78.20
9271;DHT22;4673;53.458;9.940;2024-02-14T08:03:19;6.60;78.40
9271;DHT22;4673;53.458;9.940;2024-02-14T08:05:45;6.60;78.20
9271;DHT22;4673;53.458;9.940;2024-02-14T08:08:10;6.80;78.40
9271;DHT22;4673;53.458;9.940;2024-02-14T08:10:36;6.70;78.50
9271;DHT22;4673;53.458;9.940;2024-02-14T08:13:02;6.80;78.60
9271;DHT22;4673;53.458;9.940;2024-02-14T08:15:29;6.80;78.40
9271;DHT22;4673;53.458;9.940;2024-02-14T08:17:55;6.90;78.60
9271;DHT22;4673;53.458;9.940;2024-02-14T08:20:22;6.90;78.60
9271;DHT22;4673;53.458;9.940;2024-02-14T08:22:48;7.00;78.60
9271;DHT22;4673;53.458;9.940;2024-02-14T08:25:14;7.00;78.40
9271;DHT22;4673;53.458;9.940;2024-02-14T08:27:40;7.00;78.50
9271;DHT22;4673;53.458;9.940;2024-02-14T08:30:06;7.00;78.50
9271;DHT22;4673;53.458;9.940;2024-02-14T08:32:33;7.10;78.60
9271;DHT22;4673;53.458;9.940;2024-02-14T08:34:59;7.20;78.70
9271;DHT22;4673;53.458;9.940;2024-02-14T08:37:26;7.20;78.70
9271;DHT22;4673;53.458;9.940;2024-02-14T08:39:51;7.20;78.70
9271;DHT22;4673;53.458;9.940;2024-02-14T08:42:17;7.30;78.60
9271;DHT22;4673;53.458;9.940;2024-02-14T08:44:42;7.50;78.60
9271;DHT22;4673;53.458;9.940;2024-02-14T08:47:08;7.30;78.50
9271;DHT22;4673;53.458;9.940;2024-02-14T08:49:34;7.20;78.50
9271;DHT22;4673;53.458;9.940;2024-02-14T08:52:00;7.30;78.80
9271;DHT22;4673;53.458;9.940;2024-02-14T08:54:25;7.30;78.80
9271;DHT22;4673;53.458;9.940;2024-02-14T08:56:53;7.30;78.80
9271;DHT22;4673;53.458;9.940;2024-02-14T08:59:21;7.30;79.00
9271;DHT22;4673;53.458;9.940;2024-02-14T09:01:47;7.40;79.20
9271;DHT22;4673;53.458;9.940;2024-02-14T09:04:13;7.40;79.40
9271;DHT22;4673;53.458;9.940;2024-02-14T09:06:39;7.50;79.70
9271;DHT22;4673;53.458;9.940;2024-02-14T09:09:09;7.60;79.90
9271;DHT22;4673;53.458;9.940;2024-02-14T09:11:36;7.60;79.70
9271;DHT22;4673;53.458;9.940;2024-02-14T09:14:02;7.70;79.90
9271;DHT22;4673;53.458;9.940;2024-02-14T09:16:34;7.70;80.00
9271;DHT22;4673;53.458;9.940;2024-02-14T09:19:00;7.80;80.00
9271;DHT22;4673;53.458;9.940;2024-02-14T09:21:27;7.80;80.00
9271;DHT22;4673;53.458;9.940;2024-02-14T09:23:53;7.90;80.10
9271;DHT22;4673;53.458;9.940;2024-02-14T09:26:19;8.00;80.20
9271;DHT22;4673;53.458;9.940;2024-02-14T09:28:44;8.10;80.30
9271;DHT22;4673;53.458;9.940;2024-02-14T09:31:10;8.10;80.30
9271;DHT22;4673;53.458;9.940;2024-02-14T09:33:38;8.40;80.40
9271;DHT22;4673;53.458;9.940;2024-02-14T09:36:04;8.40;80.70
9271;DHT22;4673;53.458;9.940;2024-02-14T09:38:30;8.60;80.90
9271;DHT22;4673;53.458;9.940;2024-02-14T09:43:43;8.80;80.50
9271;DHT22;4673;53.458;9.940;2024-02-14T09:46:13;8.90;80.20
9271;DHT22;4673;53.458;9.940;2024-02-14T09:48:45;8.80;79.70
9271;DHT22;4673;53.458;9.940;2024-02-14T09:51:12;8.80;79.30
9271;DHT22;4673;53.458;9.940;2024-02-14T09:53:39;8.90;79.40
9271;DHT22;4673;53.458;9.940;2024-02-14T09:56:05;9.00;79.40
9271;DHT22;4673;53.458;9.940;2024-02-14T09:58:32;9.00;79.30
9271;DHT22;4673;53.458;9.940;2024-02-14T10:00:59;9.10;79.30
9271;DHT22;4673;53.458;9.940;2024-02-14T10:03:25;9.10;79.20
9271;DHT22;4673;53.458;9.940;2024-02-14T10:05:51;9.20;79.30
9271;DHT22;4673;53.458;9.940;2024-02-14T10:08:18;9.30;79.20
9271;DHT22;4673;53.458;9.940;2024-02-14T10:10:44;9.30;78.80
9271;DHT22;4673;53.458;9.940;2024-02-14T10:13:09;9.40;78.80
9271;DHT22;4673;53.458;9.940;2024-02-14T10:15:35;9.40;78.40
9271;DHT22;4673;53.458;9.940;2024-02-14T10:18:04;9.50;78.60
9271;DHT22;4673;53.458;9.940;2024-02-14T10:20:30;9.60;78.70
9271;DHT22;4673;53.458;9.940;2024-02-14T10:23:02;9.70;78.70
9271;DHT22;4673;53.458;9.940;2024-02-14T10:25:30;9.70;78.30
9271;DHT22;4673;53.458;9.940;2024-02-14T10:28:06;9.60;77.40
9271;DHT22;4673;53.458;9.940;2024-02-14T10:30:35;9.70;77.60
9271;DHT22;4673;53.458;9.940;2024-02-14T10:33:02;9.80;77.80
9271;DHT22;4673;53.458;9.940;2024-02-14T10:35:30;10.00;77.90
9271;DHT22;4673;53.458;9.940;2024-02-14T10:37:58;10.10;77.90
9271;DHT22;4673;53.458;9.940;2024-02-14T10:40:27;10.20;77.50
9271;DHT22;4673;53.458;9.940;2024-02-14T10:42:57;10.20;77.00
9271;DHT22;4673;53.458;9.940;2024-02-14T10:45:24;10.20;76.40
9271;DHT22;4673;53.458;9.940;2024-02-14T10:47:51;10.20;75.80
9271;DHT22;4673;53.458;9.940;2024-02-14T10:50:18;10.20;75.80
9271;DHT22;4673;53.458;9.940;2024-02-14T10:52:47;10.10;75.10
9271;DHT22;4673;53.458;9.940;2024-02-14T10:55:16;10.10;75.60
9271;DHT22;4673;53.458;9.940;2024-02-14T10:57:43;10.10;75.60
9271;DHT22;4673;53.458;9.940;2024-02-14T11:00:12;10.30;76.20
9271;DHT22;4673;53.458;9.940;2024-02-14T11:02:40;10.20;75.90
9271;DHT22;4673;53.458;9.940;2024-02-14T11:05:12;10.20;76.00
9271;DHT22;4673;53.458;9.940;2024-02-14T11:07:44;10.20;75.90
9271;DHT22;4673;53.458;9.940;2024-02-14T11:10:13;10.30;76.30
9271;DHT22;4673;53.458;9.940;2024-02-14T11:12:40;10.40;76.10
9271;DHT22;4673;53.458;9.940;2024-02-14T11:15:20;10.30;76.10
9271;DHT22;4673;53.458;9.940;2024-02-14T11:17:47;10.20;76.00
9271;DHT22;4673;53.458;9.940;2024-02-14T11:20:33;10.40;76.40
9271;DHT22;4673;53.458;9.940;2024-02-14T11:23:04;10.40;76.30
9271;DHT22;4673;53.458;9.940;2024-02-14T11:25:39;10.50;76.40
9271;DHT22;4673;53.458;9.940;2024-02-14T11:28:19;10.50;76.30
9271;DHT22;4673;53.458;9.940;2024-02-14T11:30:45;10.60;76.30
9271;DHT22;4673;53.458;9.940;2024-02-14T11:33:24;10.60;76.40
9271;DHT22;4673;53.458;9.940;2024-02-14T11:35:51;10.60;76.30
9271;DHT22;4673;53.458;9.940;2024-02-14T11:38:19;10.70;76.40
9271;DHT22;4673;53.458;9.940;2024-02-14T11:40:44;10.60;76.10
9271;DHT22;4673;53.458;9.940;2024-02-14T11:43:18;10.70;75.60
9271;DHT22;4673;53.458;9.940;2024-02-14T11:45:45;10.60;75.30
9271;DHT22;4673;53.458;9.940;2024-02-14T11:48:12;10.60;75.60
9271;DHT22;4673;53.458;9.940;2024-02-14T11:50:42;10.50;75.40
9271;DHT22;4673;53.458;9.940;2024-02-14T11:53:12;10.60;76.00
9271;DHT22;4673;53.458;9.940;2024-02-14T11:55:39;10.60;76.50
9271;DHT22;4673;53.458;9.940;2024-02-14T11:58:16;10.60;76.40
9271;DHT22;4673;53.458;9.940;2024-02-14T12:00:43;10.60;76.30
9271;DHT22;4673;53.458;9.940;2024-02-14T12:03:15;10.60;76.50
9271;DHT22;4673;53.458;9.940;2024-02-14T12:05:42;10.70;76.90
9271;DHT22;4673;53.458;9.940;2024-02-14T12:08:09;10.80;76.90
9271;DHT22;4673;53.458;9.940;2024-02-14T12:10:36;10.70;76.60
9271;DHT22;4673;53.458;9.940;2024-02-14T12:13:12;10.80;76.90
9271;DHT22;4673;53.458;9.940;2024-02-14T12:18:05;10.80;77.20
9271;DHT22;4673;53.458;9.940;2024-02-14T12:20:31;10.80;77.40
9271;DHT22;4673;53.458;9.940;2024-02-14T12:22:58;10.80;77.30
9271;DHT22;4673;53.458;9.940;2024-02-14T12:25:25;10.80;77.50
9271;DHT22;4673;53.458;9.940;2024-02-14T12:27:51;10.80;77.60
9271;DHT22;4673;53.458;9.940;2024-02-14T12:30:18;11.00;77.90
9271;DHT22;4673;53.458;9.940;2024-02-14T12:32:58;11.00;77.70
9271;DHT22;4673;53.458;9.940;2024-02-14T12:35:23;11.20;77.70
9271;DHT22;4673;53.458;9.940;2024-02-14T12:37:49;11.10;77.50
9271;DHT22;4673;53.458;9.940;2024-02-14T12:40:15;11.10;77.30
9271;DHT22;4673;53.458;9.940;2024-02-14T12:42:40;11.00;76.20
9271;DHT22;4673;53.458;9.940;2024-02-14T12:45:07;11.00;76.40
9271;DHT22;4673;53.458;9.940;2024-02-14T12:47:32;11.00;76.70
9271;DHT22;4673;53.458;9.940;2024-02-14T12:50:00;11.00;76.60
9271;DHT22;4673;53.458;9.940;2024-02-14T12:52:26;10.90;76.70
9271;DHT22;4673;53.458;9.940;2024-02-14T12:54:51;10.90;76.70
9271;DHT22;4673;53.458;9.940;2024-02-14T12:57:17;10.90;77.20
9271;DHT22;4673;53.458;9.940;2024-02-14T12:59:44;11.00;77.40
9271;DHT22;4673;53.458;9.940;2024-02-14T13:02:11;11.00;77.30
9271;DHT22;4673;53.458;9.940;2024-02-14T13:04:36;11.00;77.30
9271;DHT22;4673;53.458;9.940;2024-02-14T13:07:03;11.10;77.50
9271;DHT22;4673;53.458;9.940;2024-02-14T13:09:28;11.10;77.20
9271;DHT22;4673;53.458;9.940;2024-02-14T13:11:54;11.10;76.90
9271;DHT22;4673;53.458;9.940;2024-02-14T13:14:19;11.20;77.00
9271;DHT22;4673;53.458;9.940;2024-02-14T13:16:45;11.20;76.70
9271;DHT22;4673;53.458;9.940;2024-02-14T13:19:11;11.20;76.60
9271;DHT22;4673;53.458;9.940;2024-02-14T13:21:36;11.20;76.50
9271;DHT22;4673;53.458;9.940;2024-02-14T13:24:02;11.20;76.40
9271;DHT22;4673;53.458;9.940;2024-02-14T13:26:29;11.20;76.20
9271;DHT22;4673;53.458;9.940;2024-02-14T13:28:55;10.90;76.10
9271;DHT22;4673;53.458;9.940;2024-02-14T13:31:21;11.10;76.00
9271;DHT22;4673;53.458;9.940;2024-02-14T13:33:46;11.00;75.90
9271;DHT22;4673;53.458;9.940;2024-02-14T13:36:12;11.00;76.20
9271;DHT22;4673;53.458;9.940;2024-02-14T13:38:42;11.00;76.50
9271;DHT22;4673;53.458;9.940;2024-02-14T13:41:09;11.10;76.70
9271;DHT22;4673;53.458;9.940;2024-02-14T13:43:37;11.10;76.80
9271;DHT22;4673;53.458;9.940;2024-02-14T13:46:02;11.20;76.40
9271;DHT22;4673;53.458;9.940;2024-02-14T13:48:28;11.00;76.30
9271;DHT22;4673;53.458;9.940;2024-02-14T13:50:53;10.90;76.50
9271;DHT22;4673;53.458;9.940;2024-02-14T13:53:20;11.00;77.00
9271;DHT22;4673;53.458;9.940;2024-02-14T13:55:48;11.10;77.10
9271;DHT22;4673;53.458;9.940;2024-02-14T13:58:14;11.10;77.30
9271;DHT22;4673;53.458;9.940;2024-02-14T14:00:42;11.00;77.00
9271;DHT22;4673;53.458;9.940;2024-02-14T14:03:08;11.20;77.70
9271;DHT22;4673;53.458;9.940;2024-02-14T14:05:34;11.20;77.90
9271;DHT22;4673;53.458;9.940;2024-02-14T14:07:59;11.10;77.60
9271;DHT22;4673;53.458;9.940;2024-02-14T14:10:26;11.20;77.60
9271;DHT22;4673;53.458;9.940;2024-02-14T14:12:53;11.20;77.70
9271;DHT22;4673;53.458;9.940;2024-02-14T14:15:19;11.10;77.40
9271;DHT22;4673;53.458;9.940;2024-02-14T14:17:44;11.10;77.50
9271;DHT22;4673;53.458;9.940;2024-02-14T14:20:10;11.10;77.80
9271;DHT22;4673;53.458;9.940;2024-02-14T14:22:36;11.10;77.70
9271;DHT22;4673;53.458;9.940;2024-02-14T14:25:04;11.00;77.50
9271;DHT22;4673;53.458;9.940;2024-02-14T14:27:30;11.00;77.70
9271;DHT22;4673;53.458;9.940;2024-02-14T14:29:55;11.00;77.70
9271;DHT22;4673;53.458;9.940;2024-02-14T14:32:21;10.90;77.80
9271;DHT22;4673;53.458;9.940;2024-02-14T14:34:47;10.90;77.90
9271;DHT22;4673;53.458;9.940;2024-02-14T14:37:12;10.80;77.80
9271;DHT22;4673;53.458;9.940;2024-02-14T14:39:38;10.80;77.90
9271;DHT22;4673;53.458;9.940;2024-02-14T14:42:04;10.80;78.20
9271;DHT22;4673;53.458;9.940;2024-02-14T14:44:29;10.80;78.60
9271;DHT22;4673;53.458;9.940;2024-02-14T14:46:56;10.80;78.70
9271;DHT22;4673;53.458;9.940;2024-02-14T14:49:22;10.80;78.70
9271;DHT22;4673;53.458;9.940;2024-02-14T14:51:47;10.80;78.80
9271;DHT22;4673;53.458;9.940;2024-02-14T14:54:13;10.90;79.00
9271;DHT22;4673;53.458;9.940;2024-02-14T14:56:39;10.80;78.80
9271;DHT22;4673;53.458;9.940;2024-02-14T14:59:04;10.90;79.10
9271;DHT22;4673;53.458;9.940;2024-02-14T15:01:32;10.90;79.00
9271;DHT22;4673;53.458;9.940;2024-02-14T15:03:59;10.80;78.90
9271;DHT22;4673;53.458;9.940;2024-02-14T15:06:25;10.80;79.00
9271;DHT22;4673;53.458;9.940;2024-02-14T15:08:50;10.80;79.10
9271;DHT22;4673;53.458;9.940;2024-02-14T15:11:16;10.90;79.30
9271;DHT22;4673;53.458;9.940;2024-02-14T15:13:43;10.90;79.10
9271;DHT22;4673;53.458;9.940;2024-02-14T15:16:10;10.80;79.00
9271;DHT22;4673;53.458;9.940;2024-02-14T15:18:36;10.90;79.30
9271;DHT22;4673;53.458;9.940;2024-02-14T15:21:02;10.80;79.00
9271;DHT22;4673;53.458;9.940;2024-02-14T15:23:28;10.80;79.10
9271;DHT22;4673;53.458;9.940;2024-02-14T15:25:54;10.90;79.20
9271;DHT22;4673;53.458;9.940;2024-02-14T15:28:28;10.80;79.10
9271;DHT22;4673;53.458;9.940;2024-02-14T15:30:58;10.80;78.90
9271;DHT22;4673;53.458;9.940;2024-02-14T15:33:42;10.80;78.90
9271;DHT22;4673;53.458;9.940;2024-02-14T15:36:10;10.70;79.10
9271;DHT22;4673;53.458;9.940;2024-02-14T15:38:40;10.70;79.30
9271;DHT22;4673;53.458;9.940;2024-02-14T15:41:06;10.70;79.40
9271;DHT22;4673;53.458;9.940;2024-02-14T15:43:33;10.70;79.50
9271;DHT22;4673;53.458;9.940;2024-02-14T15:45:59;10.70;79.60
9271;DHT22;4673;53.458;9.940;2024-02-14T15:48:25;10.70;79.70
9271;DHT22;4673;53.458;9.940;2024-02-14T15:50:54;10.70;79.70
9271;DHT22;4673;53.458;9.940;2024-02-14T15:53:19;10.70;79.90
9271;DHT22;4673;53.458;9.940;2024-02-14T15:55:45;10.70;79.90
9271;DHT22;4673;53.458;9.940;2024-02-14T15:58:13;10.70;79.90
9271;DHT22;4673;53.458;9.940;2024-02-14T16:00:40;10.70;79.90
9271;DHT22;4673;53.458;9.940;2024-02-14T16:03:05;10.60;79.80
9271;DHT22;4673;53.458;9.940;2024-02-14T16:05:31;10.60;80.10
9271;DHT22;4673;53.458;9.940;2024-02-14T16:07:57;10.60;80.00
9271;DHT22;4673;53.458;9.940;2024-02-14T16:10:23;10.70;80.20
9271;DHT22;4673;53.458;9.940;2024-02-14T16:12:49;10.60;80.20